• Join FlightAware (Why Join?)
  • Login
  • US Flag 
09:59AM EDT


 

Airport Tracker/Info


-or-


 

Live Flight TrackerFlight Track Log ✈ GJS3707 ✈ 15-Jul-2013 ✈ KORD - KBOI

Flight Track Log - Related Links

Times and Time Zones

All times are in EDT time to prevent confusion due to time zone crossing. See the GJS3707 flight status page for this flight to view local times or setup timezone preferences in your user account.

Time Position Orientation Groundspeed Altitude Reporting Facility
EDT Latitude Longitude Course Direction KTS MPH feet Rate Location/Type
11:23AM 41.9167 -87.9500 261° West 200 230 2,800  Level Chicago TRACON
11:24AM 41.8667 -88.0000 217° Southwest 237 273 4,700 2,040 Climbing Chicago TRACON
11:25AM 41.9295 -88.3525 255° West  Level FlightAware Approximate
11:25AM 41.8453 -88.0522 241° Southwest 242 278 6,000  Level Chicago Center
11:26AM 41.9123 -88.5039 261° West  Level FlightAware Approximate
11:26AM 41.8644 -88.1519 285° West 279 321 8,100  Level Chicago Center
11:27AM 41.8945 -88.6561 261° West  Level FlightAware Approximate
11:27AM 41.8653 -88.2586 271° West 295 339 10,400  Level Chicago Center
11:28AM 41.8764 -88.8109 261° West  Level FlightAware Approximate
11:28AM 41.8586 -88.3714 265° West 304 350 12,300  Level Chicago Center
11:29AM 41.8569 -88.4942 269° West 330 380 13,900 1,680 Climbing Chicago Center
11:30AM 41.8811 -88.6456 282° West 352 405 15,800 1,620 Climbing Chicago Center
11:31AM 41.9036 -88.7781 283° West 363 418 17,300 1,080 Climbing Chicago Center
11:32AM 41.9083 -88.9144 273° West 382 440 18,100 960 Climbing Chicago Center
11:33AM 41.8972 -89.0561 264° West 385 443 19,400 1,320 Climbing Chicago Center
11:34AM 41.8853 -89.2286 265° West 392 451 20,900 1,200 Climbing Chicago Center
11:35AM 41.8750 -89.3756 265° West 399 459 22,000 900 Climbing Chicago Center
11:36AM 41.8639 -89.5250 264° West 405 466 22,800 840 Climbing Chicago Center
11:37AM 41.8514 -89.6789 264° West 414 476 23,800 960 Climbing Chicago Center
11:38AM 41.8508 -89.8358 270° West 423 487 24,900 1,020 Climbing Chicago Center
11:39AM 41.8494 -90.0128 269° West 426 490 26,000 1,020 Climbing Chicago Center
11:40AM 41.8464 -90.1700 269° West 426 490 27,100 960 Climbing Chicago Center
11:41AM 41.8428 -90.3300 268° West 431 496 28,100 960 Climbing Chicago Center
11:42AM 41.8389 -90.4878 268° West 429 494 29,100 1,020 Climbing Chicago Center
11:43AM 41.8325 -90.6833 268° West 439 505 30,300 780 Climbing Chicago Center
11:44AM 41.8281 -90.8433 268° West 437 503 30,800 480 Climbing Chicago Center
11:45AM 41.8233 -91.0081 268° West 440 506 31,300 480 Climbing Chicago Center
11:46AM 41.8319 -91.1758 274° West 458 527 31,800 480 Climbing Chicago Center
11:47AM 41.8550 -91.3450 280° West 462 532 32,300 720 Climbing Chicago Center
11:48AM 41.8850 -91.5494 281° West 465 535 33,400 960 Climbing Chicago Center
11:49AM 41.9083 -91.7167 281° West 460 529 34,400 960 Climbing Chicago Center
11:50AM 41.9317 -91.8811 281° West 453 521 35,400 720 Climbing Chicago Center
11:52AM 41.9536 -92.0422 280° West 444 511 35,900 240 Climbing Chicago Center
11:53AM 41.9753 -92.2078 280° West 449 517 36,000  Climbing Chicago Center
11:54AM 41.9975 -92.3767 280° West 459 528 36,000  Level Chicago Center
11:55AM 42.0253 -92.5797 281° West 462 532 36,000  Level Chicago Center
11:55AM 42.0383 -92.6817 280° West 459 528 36,000  Level Minneapolis Center
11:56AM 42.0597 -92.8494 280° West 459 528 36,000  Level Minneapolis Center
11:57AM 42.0856 -93.0497 280° West 458 527 36,000  Level Minneapolis Center
11:59AM 42.1078 -93.2139 280° West 448 516 36,000  Level Minneapolis Center
12:00PM 42.1275 -93.3797 279° West 450 518 36,000  Level Minneapolis Center
12:01PM 42.1528 -93.5794 280° West 453 521 36,000  Level Minneapolis Center
12:02PM 42.1725 -93.7461 279° West 455 524 36,000  Level Minneapolis Center
12:03PM 42.1928 -93.9039 280° West 458 527 36,000  Level Minneapolis Center
12:04PM 42.2131 -94.0828 279° West 458 527 36,000  Level Minneapolis Center
12:05PM 42.2375 -94.2783 280° West 462 532 36,000  Level Minneapolis Center
12:06PM 42.2567 -94.4497 279° West 461 531 36,000  Level Minneapolis Center
12:07PM 42.2742 -94.6192 278° West 459 528 36,000  Level Minneapolis Center
12:08PM 42.2944 -94.7875 279° West 456 525 36,000  Level Minneapolis Center
12:09PM 42.3167 -94.9919 278° West 460 529 36,000  Level Minneapolis Center
12:10PM 42.3356 -95.1625 279° West 460 529 36,000  Level Minneapolis Center
12:11PM 42.3533 -95.3297 278° West 454 522 36,000  Level Minneapolis Center
12:12PM 42.3700 -95.4983 278° West 453 521 36,000  Level Minneapolis Center
12:13PM 42.3844 -95.6336 278° West 454 522 36,000  Level Minneapolis Center
12:14PM 42.4053 -95.8356 278° West 455 524 36,000  Level Minneapolis Center
12:15PM 42.4258 -96.0417 278° West 462 532 36,000  Level Minneapolis Center
12:16PM 42.4433 -96.2131 278° West 464 534 36,000  Level Minneapolis Center
12:17PM 42.4600 -96.3856 278° West 463 533 36,000  Level Minneapolis Center
12:18PM 42.4764 -96.5556 278° West 460 529 36,000  Level Minneapolis Center
12:19PM 42.4925 -96.7261 277° West 459 528 36,000  Level Minneapolis Center
12:20PM 42.5117 -96.9308 277° West 458 527 36,000  Level Minneapolis Center
12:21PM 42.5267 -97.1022 277° West 459 528 36,000  Level Minneapolis Center
12:22PM 42.5422 -97.2753 277° West 462 532 36,000  Level Minneapolis Center
12:23PM 42.5581 -97.4481 277° West 463 533 36,000  Level Minneapolis Center
12:24PM 42.5722 -97.6194 276° West 460 529 36,000  Level Minneapolis Center
12:25PM 42.5878 -97.7900 277° West 458 527 36,000  Level Minneapolis Center
12:26PM 42.6039 -97.9781 277° West 456 525 36,000  Level Minneapolis Center
12:28PM 42.6169 -98.1489 276° West 456 525 36,000  Level Minneapolis Center
12:29PM 42.6311 -98.3189 277° West 456 525 36,000  Level Minneapolis Center
12:30PM 42.6467 -98.5269 276° West 461 531 36,000  Level Minneapolis Center
12:31PM 42.6603 -98.6975 276° West 458 527 36,000  Level Minneapolis Center
12:32PM 42.6739 -98.8728 276° West 464 534 36,000  Level Minneapolis Center
12:33PM 42.6869 -99.0472 276° West 466 536 36,000  Level Minneapolis Center
12:34PM 42.6983 -99.2228 275° West 467 537 36,000  Level Minneapolis Center
12:35PM 42.7114 -99.3981 276° West 467 537 36,000  Level Minneapolis Center
12:36PM 42.7250 -99.6042 275° West 460 529 36,000  Level Minneapolis Center
12:37PM 42.7369 -99.7758 275° West 458 527 36,000  Level Minneapolis Center
12:38PM 42.7472 -99.9453 275° West 454 522 36,000 240 Level Minneapolis Center
12:39PM 42.7594 -100.1197 276° West 460 529 36,500 660 Climbing Minneapolis Center
12:40PM 42.7669 -100.2461 275° West 461 531 37,200 780 Climbing Denver Center
12:41PM 42.7775 -100.4147 275° West 451 519 38,000 360 Climbing Denver Center
12:42PM 42.7894 -100.6142 275° West 444 511 38,000  Level Denver Center
12:43PM 42.7983 -100.7769 274° West 435 501 38,000  Level Denver Center
12:44PM 42.8089 -100.9406 275° West 433 498 38,000  Level Denver Center
12:45PM 42.8164 -101.1039 274° West 432 497 38,000  Level Denver Center
12:46PM 42.8258 -101.2675 275° West 434 499 38,000  Level Denver Center
12:47PM 42.8375 -101.4558 275° West 437 503 38,000  Level Denver Center
12:48PM 42.8456 -101.6158 274° West 443 510 38,000  Level Denver Center
12:49PM 42.8536 -101.8025 273° West 442 509 38,000  Level Denver Center
12:50PM 42.8622 -101.9717 274° West 447 514 38,000  Level Denver Center
12:51PM 42.8697 -102.1308 274° West 442 509 38,000  Level Denver Center
12:52PM 42.8778 -102.3161 273° West 441 507 38,000  Level Denver Center
12:53PM 42.8847 -102.4722 274° West 435 501 38,000  Level Denver Center
12:54PM 42.8925 -102.6556 273° West 434 499 38,000  Level Denver Center
12:55PM 42.8983 -102.8117 273° West 431 496 38,000  Level Denver Center
12:56PM 42.9050 -102.9944 273° West 434 499 38,000  Level Denver Center
12:57PM 42.9117 -103.1503 273° West 433 498 38,000  Level Denver Center
12:58PM 42.9178 -103.3328 273° West 432 497 38,000  Level Denver Center
12:59PM 42.9242 -103.4894 273° West 434 499 38,000  Level Denver Center
01:00PM 42.9308 -103.6706 273° West 431 496 38,000  Level Denver Center
01:01PM 42.9356 -103.8258 272° West 430 495 38,000  Level Denver Center
01:02PM 42.9414 -104.0078 273° West 431 496 38,000  Level Denver Center
01:03PM 42.9464 -104.1628 273° West 430 495 38,000  Level Denver Center
01:04PM 42.9517 -104.3408 272° West 426 490 38,000  Level Denver Center
01:06PM 42.9558 -104.4928 272° West 423 487 38,000  Level Denver Center
01:07PM 42.9606 -104.6700 272° West 422 486 38,000  Level Denver Center
01:08PM 42.9631 -104.8236 271° West 425 489 38,000  Level Denver Center
01:09PM 42.9669 -105.0014 272° West 424 488 38,000  Level Denver Center
01:10PM 42.9706 -105.1567 272° West 429 494 38,000  Level Denver Center
01:11PM 42.9736 -105.3364 271° West 426 490 38,000  Level Denver Center
01:12PM 42.9753 -105.4917 271° West 429 494 38,000  Level Denver Center
01:13PM 42.9792 -105.6703 272° West 425 489 38,000  Level Denver Center
01:14PM 42.9817 -105.8225 271° West 422 486 38,000  Level Denver Center
01:15PM 42.9886 -105.9994 273° West 420 483 38,000  Level Denver Center
01:16PM 43.0039 -106.1500 278° West 417 480 38,000  Level Denver Center
01:17PM 43.0208 -106.3258 278° West 418 481 38,000  Level Denver Center
01:18PM 43.0342 -106.4750 277° West 418 481 38,000  Level Denver Center
01:19PM 43.0511 -106.6489 278° West 412 474 38,000  Level Denver Center
01:20PM 43.0658 -106.7994 278° West 416 479 38,000  Level Denver Center
01:21PM 43.0806 -106.9719 277° West 412 474 38,000  Level Denver Center
01:22PM 43.0869 -107.0508 276° West 415 478 38,000  Level Salt Lake Center
01:23PM 43.1019 -107.2058 278° West 414 476 38,000  Level Salt Lake Center
01:23PM 43.1078 -107.2678 277° West 415 478 38,000  Level Denver Center
01:24PM 43.1236 -107.4542 277° West 412 474 38,000  Level Denver Center
01:25PM 43.1292 -107.5172 277° West 411 473 38,000  Level Salt Lake Center
01:26PM 43.1422 -107.6742 277° West 413 475 38,000  Level Salt Lake Center
01:27PM 43.1550 -107.8281 277° West 408 470 38,000  Level Salt Lake Center
01:28PM 43.1714 -108.0144 277° West 411 473 38,000  Level Salt Lake Center
01:29PM 43.1847 -108.1694 277° West 410 472 38,000  Level Salt Lake Center
01:30PM 43.1969 -108.3228 276° West 408 470 38,000  Level Salt Lake Center
01:31PM 43.2092 -108.4778 276° West 408 470 38,000  Level Salt Lake Center
01:32PM 43.2208 -108.6319 276° West 407 468 38,000  Level Salt Lake Center
01:33PM 43.2325 -108.7856 276° West 407 468 38,000  Level Salt Lake Center
01:34PM 43.2453 -108.9417 276° West 410 472 38,000  Level Salt Lake Center
01:35PM 43.2586 -109.1244 276° West 406 467 38,000  Level Salt Lake Center
01:36PM 43.2692 -109.2764 276° West 403 464 38,000  Level Salt Lake Center
01:37PM 43.2794 -109.4303 275° West 405 466 38,000  Level Salt Lake Center
01:38PM 43.2900 -109.5844 275° West 406 467 38,000  Level Salt Lake Center
01:39PM 43.3003 -109.7367 275° West 401 461 38,000  Level Salt Lake Center
01:40PM 43.3136 -109.9108 276° West 398 458 38,000  Level Salt Lake Center
01:41PM 43.3231 -110.0586 275° West 405 466 38,000  Level Salt Lake Center
01:42PM 43.3350 -110.2308 276° West 406 467 38,000  Level Salt Lake Center
01:43PM 43.3433 -110.3783 274° West 408 470 38,000  Level Salt Lake Center
01:44PM 43.3522 -110.5528 274° West 408 470 38,000  Level Salt Lake Center
01:45PM 43.3622 -110.7067 275° West 405 466 38,000  Level Salt Lake Center
01:46PM 43.3708 -110.8567 275° West 410 472 38,000  Level Salt Lake Center
01:47PM 43.3808 -111.0322 275° West 411 473 38,000  Level Salt Lake Center
01:48PM 43.3889 -111.1833 274° West 412 474 38,000  Level Salt Lake Center
01:49PM 43.3986 -111.3564 274° West 408 470 38,000  Level Salt Lake Center
01:50PM 43.4067 -111.5056 274° West 408 470 38,000  Level Salt Lake Center
01:52PM 43.4158 -111.6800 274° West 409 471 38,000  Level Salt Lake Center
01:53PM 43.4228 -111.8281 274° West 406 467 38,000  Level Salt Lake Center
01:54PM 43.4306 -111.9756 274° West 404 465 38,000  Level Salt Lake Center
01:55PM 43.4378 -112.1500 273° West 406 467 38,000  Level Salt Lake Center
01:56PM 43.4453 -112.2992 274° West 407 468 38,000  Level Salt Lake Center
01:57PM 43.4522 -112.4669 273° West 394 453 38,000  Level Salt Lake Center
01:58PM 43.4578 -112.6103 273° West 391 450 38,000  Level Salt Lake Center
01:59PM 43.4647 -112.7767 273° West 389 448 38,000  Level Salt Lake Center
02:00PM 43.4711 -112.9294 273° West 408 470 38,000  Level Salt Lake Center
02:01PM 43.4781 -113.1044 273° West 411 473 38,000  Level Salt Lake Center
02:02PM 43.4831 -113.2525 273° West 407 468 38,000  Level Salt Lake Center
02:03PM 43.4900 -113.4242 273° West 402 463 38,000  Level Salt Lake Center
02:04PM 43.4944 -113.5736 272° West 412 474 38,000 -480 Level Salt Lake Center
02:05PM 43.5011 -113.7231 274° West 412 474 37,100 -1,260 Descending Salt Lake Center
02:06PM 43.5050 -113.8917 272° West 397 457 35,400 -2,340 Descending Salt Lake Center
02:07PM 43.5089 -114.0533 272° West 403 464 32,300 -2,940 Descending Salt Lake Center
02:08PM 43.5128 -114.1997 272° West 399 459 29,400 -3,060 Descending Salt Lake Center
02:09PM 43.5189 -114.3686 273° West 396 456 26,000 -3,000 Descending Salt Lake Center
02:10PM 43.5219 -114.5114 272° West 388 447 23,200 -2,940 Descending Salt Lake Center
02:11PM 43.5264 -114.6661 272° West 381 438 19,900 -2,880 Descending Salt Lake Center
02:12PM 43.5294 -114.8153 272° West 374 430 17,300 -2,340 Descending Salt Lake Center
02:13PM 43.5314 -114.9553 271° West 352 405 15,100 -1,800 Descending Salt Lake Center
02:14PM 43.5353 -115.0928 272° West 347 399 13,600 -1,020 Descending Salt Lake Center
02:15PM 43.5381 -115.2322 272° West 348 400 13,000 -300 Descending Salt Lake Center
02:16PM 43.5403 -115.3669 271° West 339 390 13,000  Level Salt Lake Center
02:17PM 43.5428 -115.5033 271° West 345 397 13,000 -60 Level Salt Lake Center
02:18PM 43.5447 -115.6322 271° West 349 402 12,900 -780 Descending Salt Lake Center
02:19PM 43.5475 -115.7828 272° West 378 435 11,500 -1,320 Descending Salt Lake Center
02:20PM 43.5447 -115.9211 268° West 332 382 10,200 -2,160 Descending Salt Lake Center
02:22PM 43.5111 -116.0278 247° West 295 339 7,100 -2,340 Descending Salt Lake Center
02:23PM 43.5008 -116.1256 262° West 277 319 5,400 -1,020 Descending Salt Lake Center
02:24PM 43.5511 -116.1792 322° Northwest 223 257 5,000 240 Descending Salt Lake Center
02:25PM 43.5772 -116.2681 292° West 242 278 6,000 480 Climbing Salt Lake Center
02:26PM 43.5989 -116.3583 288° West 236 272 6,000  Level Salt Lake Center
02:27PM 43.5528 -116.3625 184° South 218 251 6,000  Level Salt Lake Center
02:28PM 43.5281 -116.2836 113° Southeast 215 247 6,000 -60 Level Salt Lake Center
02:29PM 43.5019 -116.2083 116° Southeast 210 242 5,900 -420 Descending Salt Lake Center
02:30PM 43.4753 -116.1342 116° Southeast 209 241 5,200 -720 Descending Salt Lake Center